Aviation Digital Data Service (ADDS)

Output produced by METARs form (0602 UTC 31 August 2016)
found at http://aviationweather.gov/adds/metars/
 
KHLG 310533Z 3106/0106 00000KT P6SM SCT250 
     FM311500 25003KT P6SM VCTS BKN110CB 
     FM312100 32005KT P6SM -SHRA VCTS BKN050CB 
     FM010100 34005KT P6SM BKN015